createdAt,value
2019-06-01T00:02:18.082Z,111.03
2019-06-01T00:04:49.876Z,103.67
2019-06-01T00:07:21.589Z,105.93
2019-06-01T00:09:53.285Z,103.20
2019-06-01T00:12:25.005Z,100.87
2019-06-01T00:14:56.718Z,111.23
2019-06-01T00:17:28.442Z,110.13
2019-06-01T00:20:00.139Z,101.13
2019-06-01T00:22:31.956Z,126.17
2019-06-01T00:25:04.087Z,102.00
2019-06-01T00:27:35.799Z,109.43
2019-06-01T00:30:07.713Z,103.03
2019-06-01T00:32:39.429Z,112.83
2019-06-01T00:35:11.119Z,118.60
2019-06-01T00:37:43.433Z,103.50
2019-06-01T00:40:15.445Z,119.70
2019-06-01T00:42:48.301Z,100.03
2019-06-01T00:45:20.285Z,116.70
2019-06-01T00:47:53.013Z,119.97
2019-06-01T00:50:24.930Z,115.70
2019-06-01T00:52:56.725Z,122.63
2019-06-01T00:55:28.440Z,113.33
2019-06-01T00:58:00.175Z,111.43
2019-06-01T01:00:43.121Z,112.03
2019-06-01T01:03:05.590Z,116.30
2019-06-01T01:05:37.293Z,121.07
2019-06-01T01:08:09.002Z,110.03
2019-06-01T01:10:40.704Z,109.30
2019-06-01T01:13:15.612Z,118.53
2019-06-01T01:15:47.376Z,125.17
2019-06-01T01:18:19.192Z,123.37
2019-06-01T01:20:51.960Z,136.50
2019-06-01T01:23:23.901Z,132.13
2019-06-01T01:25:56.589Z,117.10
2019-06-01T01:28:28.516Z,121.73
2019-06-01T01:31:12.511Z,130.90
2019-06-01T01:33:33.852Z,121.77
2019-06-01T01:36:05.548Z,131.80
2019-06-01T01:38:37.301Z,134.17
2019-06-01T01:41:09.245Z,123.67
2019-06-01T01:43:40.950Z,122.30
2019-06-01T01:46:12.646Z,133.53
2019-06-01T01:48:44.357Z,127.67
2019-06-01T01:51:16.058Z,130.10
2019-06-01T01:53:47.766Z,124.23
2019-06-01T01:56:19.456Z,123.73
2019-06-01T01:58:52.299Z,138.90
2019-06-01T02:01:24.086Z,129.63
2019-06-01T02:03:57.272Z,127.30
2019-06-01T02:06:29.568Z,130.20
2019-06-01T02:09:01.833Z,135.10
2019-06-01T02:11:35.088Z,125.10
2019-06-01T02:14:06.982Z,136.67
2019-06-01T02:16:38.680Z,133.07
2019-06-01T02:19:10.537Z,131.70
2019-06-01T02:21:42.322Z,148.23
2019-06-01T02:24:14.049Z,146.23
2019-06-01T02:26:45.765Z,124.60
2019-06-01T02:29:17.480Z,138.03
2019-06-01T02:31:49.285Z,144.60
2019-06-01T02:34:21.100Z,133.63
2019-06-01T02:36:54.335Z,135.57
2019-06-01T02:39:26.326Z,135.90
2019-06-01T02:41:59.119Z,125.73
2019-06-01T02:44:30.940Z,125.47
2019-06-01T02:47:04.030Z,141.53
2019-06-01T02:49:36.781Z,140.83
2019-06-01T02:52:08.682Z,128.27
2019-06-01T02:54:40.499Z,132.07
2019-06-01T02:57:12.309Z,143.93
2019-06-01T02:59:44.017Z,152.20
2019-06-01T03:02:15.904Z,143.03
2019-06-01T03:04:47.824Z,146.47
2019-06-01T03:07:19.732Z,147.97
2019-06-01T03:09:53.258Z,140.97
2019-06-01T03:12:28.372Z,148.63
2019-06-01T03:15:02.695Z,151.90
2019-06-01T03:17:37.596Z,150.70
2019-06-01T03:20:09.409Z,154.07
2019-06-01T03:22:41.520Z,152.23
2019-06-01T03:25:14.169Z,142.50
2019-06-01T03:27:48.256Z,162.87
2019-06-01T03:30:34.611Z,164.47
2019-06-01T03:33:08.615Z,172.27
2019-06-01T03:35:40.004Z,159.83
2019-06-01T03:38:11.797Z,159.37
2019-06-01T03:40:43.536Z,155.13
2019-06-01T03:43:15.954Z,166.93
2019-06-01T03:45:47.849Z,163.27
2019-06-01T03:48:19.554Z,157.10
2019-06-01T03:50:51.266Z,149.27
2019-06-01T03:53:23.088Z,146.00
2019-06-01T03:55:54.814Z,142.63
2019-06-01T03:58:26.632Z,138.40
2019-06-01T04:00:58.384Z,148.27
2019-06-01T04:03:30.173Z,129.83
2019-06-01T04:06:03.242Z,121.70
2019-06-01T04:08:35.092Z,92.67
2019-06-01T04:11:07.775Z,91.33
2019-06-01T04:13:39.543Z,84.57
2019-06-01T04:16:12.075Z,77.37
2019-06-01T04:18:43.952Z,75.97
2019-06-01T04:21:15.656Z,75.83
2019-06-01T04:23:47.360Z,74.53
2019-06-01T04:26:19.067Z,73.13
2019-06-01T04:28:50.865Z,87.43
2019-06-01T04:31:22.684Z,85.17
2019-06-01T04:33:54.414Z,69.20
2019-06-01T04:36:26.129Z,61.63
2019-06-01T04:38:57.945Z,59.83
2019-06-01T04:41:29.853Z,60.40
2019-06-01T04:44:01.596Z,57.73
2019-06-01T04:46:33.335Z,51.03
2019-06-01T04:49:06.430Z,52.33
2019-06-01T04:51:38.247Z,50.73
2019-06-01T04:54:11.541Z,44.13
2019-06-01T04:56:43.772Z,51.43
2019-06-01T04:59:15.565Z,43.23
2019-06-01T05:01:47.328Z,45.57
2019-06-01T05:04:19.037Z,44.57
2019-06-01T05:06:50.840Z,44.30
2019-06-01T05:09:22.552Z,47.83
2019-06-01T05:11:54.285Z,43.43
2019-06-01T05:14:26.092Z,47.13
2019-06-01T05:16:57.932Z,44.23
2019-06-01T05:19:29.628Z,47.53
2019-06-01T05:22:01.347Z,47.17
2019-06-01T05:24:33.032Z,46.53
2019-06-01T05:27:04.752Z,48.33
2019-06-01T05:29:36.518Z,42.03
2019-06-01T05:32:08.418Z,44.93
2019-06-01T05:34:40.265Z,48.37
2019-06-01T05:37:12.336Z,41.33
2019-06-01T05:39:44.279Z,48.20
2019-06-01T05:42:16.946Z,42.47
2019-06-01T05:44:48.772Z,46.73
2019-06-01T05:47:20.491Z,42.53
2019-06-01T05:49:52.195Z,38.47
2019-06-01T05:52:23.989Z,38.47
2019-06-01T05:54:55.701Z,37.10
2019-06-01T05:57:27.411Z,45.37
2019-06-01T05:59:59.209Z,30.83
2019-06-01T06:02:30.938Z,37.13
2019-06-01T06:05:04.080Z,36.07
2019-06-01T06:07:36.000Z,32.50
2019-06-01T06:10:08.401Z,39.13
2019-06-01T06:12:40.218Z,36.50
2019-06-01T06:15:13.471Z,35.60
2019-06-01T06:17:45.461Z,36.27
2019-06-01T06:20:18.028Z,36.97
2019-06-01T06:22:49.778Z,31.10
2019-06-01T06:25:21.477Z,36.07
2019-06-01T06:27:53.197Z,29.43
2019-06-01T06:30:24.904Z,43.00
2019-06-01T06:32:56.711Z,30.20
2019-06-01T06:35:28.508Z,29.17
2019-06-01T06:38:00.239Z,25.50
2019-06-01T06:40:31.968Z,27.83
2019-06-01T06:43:16.611Z,22.37
2019-06-01T06:45:37.486Z,26.02
2019-06-01T06:48:09.213Z,21.10
2019-06-01T06:50:40.918Z,25.52
2019-06-01T06:53:24.521Z,20.88
2019-06-01T06:55:46.337Z,26.40
2019-06-01T06:58:18.787Z,19.70
2019-06-01T07:00:50.793Z,21.93
2019-06-01T07:03:23.086Z,21.00
2019-06-01T07:05:55.021Z,14.78
2019-06-01T07:08:27.960Z,17.35
2019-06-01T07:10:59.960Z,17.42
2019-06-01T07:13:31.696Z,18.50
2019-06-01T07:16:04.031Z,15.58
2019-06-01T07:18:36.668Z,21.23
2019-06-01T07:21:08.588Z,16.45
2019-06-01T07:23:40.419Z,14.75
2019-06-01T07:26:12.227Z,15.05
2019-06-01T07:28:44.653Z,13.08
2019-06-01T07:31:16.679Z,16.77
2019-06-01T07:33:48.505Z,19.12
2019-06-01T07:36:20.299Z,18.75
2019-06-01T07:38:52.138Z,20.08
2019-06-01T07:41:24.681Z,16.70
2019-06-01T07:43:56.573Z,25.70
2019-06-01T07:46:29.016Z,15.53
2019-06-01T07:49:01.240Z,13.55
2019-06-01T07:51:32.972Z,11.85
2019-06-01T07:54:04.800Z,14.40
2019-06-01T07:56:36.633Z,17.40
2019-06-01T07:59:08.469Z,14.07
2019-06-01T08:01:40.185Z,14.83
2019-06-01T08:04:11.926Z,17.35
2019-06-01T08:06:47.345Z,12.85
2019-06-01T08:09:17.275Z,13.03
2019-06-01T08:11:49.017Z,15.38
2019-06-01T08:14:20.819Z,16.05
2019-06-01T08:16:52.643Z,10.53
2019-06-01T08:19:25.849Z,13.32
2019-06-01T08:21:57.787Z,9.58
2019-06-01T08:24:30.294Z,9.78
2019-06-01T08:27:02.311Z,9.90
2019-06-01T08:29:34.131Z,12.93
2019-06-01T08:32:05.848Z,12.20
2019-06-01T08:34:37.593Z,12.45
2019-06-01T08:37:09.484Z,12.93
2019-06-01T08:39:41.231Z,14.78
2019-06-01T08:42:13.013Z,10.53
2019-06-01T08:44:44.729Z,8.03
2019-06-01T08:47:16.441Z,9.30
2019-06-01T08:49:48.185Z,9.73
2019-06-01T08:52:19.906Z,11.85
2019-06-01T08:54:51.649Z,16.30
2019-06-01T08:57:24.198Z,16.23
2019-06-01T08:59:56.118Z,9.13
2019-06-01T09:02:29.043Z,9.48
2019-06-01T09:05:00.960Z,11.12
2019-06-01T09:07:33.203Z,7.80
2019-06-01T09:10:06.165Z,12.88
2019-06-01T09:12:38.089Z,8.63
2019-06-01T09:15:10.221Z,9.53
2019-06-01T09:17:41.934Z,10.55
2019-06-01T09:20:14.672Z,8.80
2019-06-01T09:22:48.137Z,9.03
2019-06-01T09:25:20.125Z,10.58
2019-06-01T09:27:51.939Z,7.15
2019-06-01T09:30:23.880Z,8.45
2019-06-01T09:32:55.606Z,11.18
2019-06-01T09:35:45.953Z,8.55
2019-06-01T09:38:00.969Z,13.95
2019-06-01T09:40:33.547Z,8.78
2019-06-01T09:43:06.654Z,9.33
2019-06-01T09:45:38.475Z,6.45
2019-06-01T09:48:10.197Z,7.30
2019-06-01T09:50:42.016Z,6.95
2019-06-01T09:53:13.729Z,8.78
2019-06-01T09:55:45.586Z,6.45
2019-06-01T09:58:17.390Z,12.73
2019-06-01T10:00:49.115Z,9.50
2019-06-01T10:03:20.933Z,10.20
2019-06-01T10:06:01.837Z,8.73
2019-06-01T10:08:26.261Z,7.20
2019-06-01T10:10:58.216Z,9.73
2019-06-01T10:13:30.441Z,9.20
2019-06-01T10:16:02.778Z,5.33
2019-06-01T10:18:35.334Z,7.05
2019-06-01T10:21:07.596Z,4.45
2019-06-01T10:23:39.322Z,6.12
2019-06-01T10:26:11.045Z,7.90
2019-06-01T10:28:42.814Z,6.53
2019-06-01T10:31:14.640Z,4.55
2019-06-01T10:33:46.343Z,6.50
2019-06-01T10:36:21.117Z,6.72
2019-06-01T10:38:51.897Z,7.70
2019-06-01T10:41:23.624Z,8.00
2019-06-01T10:43:55.368Z,8.10
2019-06-01T10:46:27.148Z,8.03
2019-06-01T10:48:58.881Z,7.35
2019-06-01T10:51:31.937Z,5.22
2019-06-01T10:54:04.021Z,14.23
2019-06-01T10:56:36.250Z,5.90
2019-06-01T10:59:08.138Z,7.17
2019-06-01T11:01:40.883Z,5.60
2019-06-01T11:04:13.082Z,8.45
2019-06-01T11:06:48.574Z,6.12
2019-06-01T11:09:18.475Z,8.48
2019-06-01T11:11:50.297Z,7.47
2019-06-01T11:14:21.998Z,5.15
2019-06-01T11:16:56.444Z,6.78
2019-06-01T11:19:27.421Z,11.25
2019-06-01T11:21:59.133Z,4.35
2019-06-01T11:24:30.841Z,8.48
2019-06-01T11:27:02.653Z,4.97
2019-06-01T11:29:38.836Z,12.73
2019-06-01T11:32:07.987Z,6.45
2019-06-01T11:34:40.302Z,6.75
2019-06-01T11:37:15.315Z,4.08
2019-06-01T11:39:45.722Z,3.67
2019-06-01T11:42:20.002Z,3.72
2019-06-01T11:44:51.125Z,4.30
2019-06-01T11:47:22.837Z,3.27
2019-06-01T11:49:54.638Z,4.28
2019-06-01T11:52:26.450Z,5.75
2019-06-01T11:54:58.160Z,5.55
2019-06-01T11:57:29.971Z,6.70
2019-06-01T12:00:01.845Z,9.08
2019-06-01T12:02:33.656Z,6.80
2019-06-01T12:05:06.270Z,8.50
2019-06-01T12:07:38.088Z,4.12
2019-06-01T12:10:11.208Z,8.93
2019-06-01T12:12:44.183Z,7.30
2019-06-01T12:15:17.113Z,3.70
2019-06-01T12:17:48.836Z,3.30
2019-06-01T12:20:20.832Z,5.03
2019-06-01T12:22:52.528Z,6.85
2019-06-01T12:25:24.217Z,3.70
2019-06-01T12:27:55.945Z,6.00
2019-06-01T12:30:27.658Z,3.55
2019-06-01T12:32:59.368Z,8.28
2019-06-01T12:35:31.070Z,3.85
2019-06-01T12:38:06.912Z,2.62
2019-06-01T12:40:36.628Z,6.33
2019-06-01T12:43:08.331Z,3.50
2019-06-01T12:45:40.034Z,3.02
2019-06-01T12:48:11.786Z,5.20
2019-06-01T12:50:47.841Z,3.83
2019-06-01T12:53:17.304Z,2.30
2019-06-01T12:55:49.012Z,4.00
2019-06-01T12:58:20.860Z,3.12
2019-06-01T13:00:52.646Z,3.30
2019-06-01T13:03:24.455Z,5.08
2019-06-01T13:05:56.157Z,5.70
2019-06-01T13:08:27.877Z,3.47
2019-06-01T13:10:59.592Z,6.45
2019-06-01T13:13:31.300Z,4.40
2019-06-01T13:16:03.129Z,5.30
2019-06-01T13:18:35.049Z,4.50
2019-06-01T13:21:06.749Z,6.60
2019-06-01T13:23:38.475Z,5.15
2019-06-01T13:26:10.375Z,11.55
2019-06-01T13:28:42.089Z,3.95
2019-06-01T13:31:13.798Z,3.22
2019-06-01T13:33:46.474Z,2.20
2019-06-01T13:36:18.308Z,4.78
2019-06-01T13:38:50.861Z,4.78
2019-06-01T13:41:22.764Z,5.28
2019-06-01T13:43:54.515Z,1.72
2019-06-01T13:46:26.220Z,2.85
2019-06-01T13:48:57.933Z,2.80
2019-06-01T13:51:29.641Z,3.72
2019-06-01T13:54:01.356Z,7.40
2019-06-01T13:56:33.072Z,2.70
2019-06-01T13:59:04.984Z,2.42
2019-06-01T14:01:36.691Z,3.20
2019-06-01T14:04:08.422Z,3.87
2019-06-01T14:06:40.218Z,5.35
2019-06-01T14:09:12.030Z,4.35
2019-06-01T14:11:45.201Z,3.60
2019-06-01T14:14:17.190Z,4.08
2019-06-01T14:16:49.487Z,3.17
2019-06-01T14:19:21.649Z,5.50
2019-06-01T14:21:54.199Z,2.17
2019-06-01T14:24:26.174Z,4.58
2019-06-01T14:26:57.880Z,2.45
2019-06-01T14:29:29.608Z,4.92
2019-06-01T14:32:01.433Z,3.45
2019-06-01T14:34:33.278Z,4.90
2019-06-01T14:37:05.077Z,3.20
2019-06-01T14:39:36.814Z,4.17
2019-06-01T14:42:08.612Z,4.42
2019-06-01T14:44:40.321Z,2.35
2019-06-01T14:47:12.030Z,4.37
2019-06-01T14:49:43.840Z,2.85
2019-06-01T14:52:15.540Z,4.60
2019-06-01T14:54:47.624Z,4.97
2019-06-01T14:57:19.477Z,3.20
2019-06-01T14:59:51.972Z,6.62
2019-06-01T15:02:23.722Z,2.33
2019-06-01T15:04:56.456Z,6.25
2019-06-01T15:07:28.344Z,10.35
2019-06-01T15:10:00.052Z,4.97
2019-06-01T15:12:31.748Z,6.03
2019-06-01T15:15:04.861Z,4.55
2019-06-01T15:17:36.664Z,7.65
2019-06-01T15:20:08.828Z,3.60
2019-06-01T15:22:40.538Z,4.78
2019-06-01T15:25:12.864Z,3.58
2019-06-01T15:27:44.585Z,4.28
2019-06-01T15:30:17.106Z,7.55
2019-06-01T15:32:49.982Z,4.58
2019-06-01T15:35:21.925Z,9.65
2019-06-01T15:37:58.330Z,4.72
2019-06-01T15:40:27.248Z,2.75
2019-06-01T15:42:59.456Z,3.10
2019-06-01T15:45:31.339Z,4.45
2019-06-01T15:48:03.351Z,5.65
2019-06-01T15:50:35.168Z,3.83
2019-06-01T15:53:06.881Z,4.30
2019-06-01T15:55:38.637Z,4.80
2019-06-01T15:58:10.448Z,4.45
2019-06-01T16:00:42.276Z,6.85
2019-06-01T16:03:13.976Z,2.22
2019-06-01T16:05:45.704Z,7.55
2019-06-01T16:08:17.497Z,3.45
2019-06-01T16:10:49.346Z,4.55
2019-06-01T16:13:21.040Z,3.75
2019-06-01T16:15:53.311Z,2.58
2019-06-01T16:18:25.077Z,7.17
2019-06-01T16:20:57.825Z,4.15
2019-06-01T16:23:29.713Z,5.80
2019-06-01T16:26:09.492Z,3.85
2019-06-01T16:28:35.096Z,3.60
2019-06-01T16:31:07.020Z,4.58
2019-06-01T16:33:38.705Z,4.65
2019-06-01T16:36:10.425Z,5.37
2019-06-01T16:38:42.131Z,4.83
2019-06-01T16:41:14.160Z,2.22
2019-06-01T16:43:45.864Z,3.27
2019-06-01T16:46:17.612Z,3.72
2019-06-01T16:48:49.309Z,6.62
2019-06-01T16:51:21.035Z,4.72
2019-06-01T16:53:52.739Z,6.97
2019-06-01T16:56:24.463Z,8.93
2019-06-01T16:58:56.191Z,7.65
2019-06-01T17:01:28.005Z,4.03
2019-06-01T17:04:00.558Z,4.95
2019-06-01T17:06:32.861Z,4.05
2019-06-01T17:09:05.304Z,4.05
2019-06-01T17:11:37.220Z,5.65
2019-06-01T17:14:09.224Z,7.92
2019-06-01T17:16:40.944Z,9.80
2019-06-01T17:19:12.743Z,5.62
2019-06-01T17:21:44.547Z,4.20
2019-06-01T17:24:16.261Z,2.72
2019-06-01T17:26:47.985Z,5.30
2019-06-01T17:29:19.713Z,8.60
2019-06-01T17:31:54.353Z,4.72
2019-06-01T17:34:25.035Z,5.05
2019-06-01T17:36:56.828Z,5.95
2019-06-01T17:39:28.524Z,16.48
2019-06-01T17:42:00.373Z,8.68
2019-06-01T17:44:32.154Z,4.05
2019-06-01T17:47:04.601Z,5.00
2019-06-01T17:49:36.438Z,4.25
2019-06-01T17:52:08.229Z,5.17
2019-06-01T17:54:39.956Z,8.20
2019-06-01T17:57:11.693Z,15.63
2019-06-01T17:59:43.580Z,11.50
2019-06-01T18:02:15.507Z,12.68
2019-06-01T18:04:47.315Z,17.02
2019-06-01T18:07:19.025Z,7.03
2019-06-01T18:09:50.716Z,6.10
2019-06-01T18:12:22.431Z,8.75
2019-06-01T18:14:54.151Z,11.97
2019-06-01T18:17:25.963Z,10.25
2019-06-01T18:19:57.661Z,12.60
2019-06-01T18:22:29.494Z,10.78
2019-06-01T18:25:02.466Z,13.50
2019-06-01T18:27:34.602Z,9.48
2019-06-01T18:30:07.090Z,8.33
2019-06-01T18:32:38.831Z,10.10
2019-06-01T18:35:11.395Z,8.08
2019-06-01T18:37:43.257Z,9.60
2019-06-01T18:40:17.309Z,10.38
2019-06-01T18:42:53.763Z,10.50
2019-06-01T18:45:25.777Z,21.05
2019-06-01T18:47:57.708Z,15.90
2019-06-01T18:50:29.553Z,17.50
2019-06-01T18:53:01.518Z,15.28
2019-06-01T18:55:35.531Z,8.88
2019-06-01T18:58:08.147Z,16.20
2019-06-01T19:00:40.650Z,17.20
2019-06-01T19:03:13.672Z,12.98
2019-06-01T19:05:46.112Z,12.70
2019-06-01T19:08:18.025Z,9.23
2019-06-01T19:10:50.201Z,7.27
2019-06-01T19:13:22.204Z,13.23
2019-06-01T19:15:53.999Z,8.90
2019-06-01T19:18:25.747Z,7.80
2019-06-01T19:20:57.458Z,8.27
2019-06-01T19:23:29.282Z,7.20
2019-06-01T19:26:00.994Z,9.57
2019-06-01T19:28:32.735Z,12.03
2019-06-01T19:31:04.743Z,77.13
2019-06-01T19:33:36.739Z,55.63
2019-06-01T19:36:08.926Z,41.93
2019-06-01T19:38:42.668Z,14.97
2019-06-01T19:41:15.465Z,13.53
2019-06-01T19:43:47.463Z,24.37
2019-06-01T19:46:19.301Z,25.03
2019-06-01T19:48:51.145Z,22.03
2019-06-01T19:51:22.935Z,9.83
2019-06-01T19:53:54.692Z,15.47
2019-06-01T19:56:26.531Z,10.23
2019-06-01T19:58:58.388Z,16.00
2019-06-01T20:01:30.134Z,21.40
2019-06-01T20:04:01.888Z,17.73
2019-06-01T20:06:33.621Z,40.73
2019-06-01T20:09:06.112Z,57.10
2019-06-01T20:11:37.942Z,93.50
2019-06-01T20:14:10.224Z,95.87
2019-06-01T20:16:42.009Z,139.27
2019-06-01T20:19:13.761Z,155.67
2019-06-01T20:21:45.729Z,174.10
2019-06-01T20:24:17.569Z,183.70
2019-06-01T20:26:49.703Z,187.47
2019-06-01T20:29:21.834Z,172.90
2019-06-01T20:31:53.646Z,163.07
2019-06-01T20:34:25.482Z,115.27
2019-06-01T20:36:57.328Z,112.53
2019-06-01T20:39:29.217Z,70.17
2019-06-01T20:42:17.251Z,56.67
2019-06-01T20:44:34.666Z,49.10
2019-06-01T20:47:06.562Z,48.20
2019-06-01T20:49:38.304Z,81.10
2019-06-01T20:52:10.019Z,73.07
2019-06-01T20:54:41.765Z,64.10
2019-06-01T20:57:13.584Z,36.77
2019-06-01T20:59:45.441Z,28.53
2019-06-01T21:02:17.872Z,22.73
2019-06-01T21:04:49.784Z,30.00
2019-06-01T21:07:21.945Z,19.53
2019-06-01T21:09:53.827Z,14.87
2019-06-01T21:12:43.916Z,13.60
2019-06-01T21:14:59.342Z,13.53
2019-06-01T21:17:31.110Z,14.60
2019-06-01T21:20:04.871Z,9.50
2019-06-01T21:22:36.756Z,11.90
2019-06-01T21:25:08.596Z,9.07
2019-06-01T21:27:40.295Z,9.23
2019-06-01T21:30:12.652Z,11.77
2019-06-01T21:32:44.495Z,8.67
2019-06-01T21:35:17.216Z,9.67
2019-06-01T21:37:49.325Z,11.00
2019-06-01T21:40:21.512Z,9.20
2019-06-01T21:43:03.042Z,12.70
2019-06-01T21:45:26.977Z,8.57
2019-06-01T21:47:58.691Z,10.77
2019-06-01T21:50:30.419Z,10.13
2019-06-01T21:53:02.121Z,16.67
2019-06-01T21:55:33.934Z,12.20
2019-06-01T21:58:05.631Z,45.47
2019-06-01T22:00:38.368Z,87.10
2019-06-01T22:03:10.278Z,119.67
2019-06-01T22:05:42.101Z,60.87
2019-06-01T22:08:13.832Z,31.93
2019-06-01T22:10:45.557Z,23.67
2019-06-01T22:13:20.254Z,19.20
2019-06-01T22:15:50.894Z,39.77
2019-06-01T22:18:23.760Z,74.73
2019-06-01T22:20:55.573Z,181.33
2019-06-01T22:23:28.207Z,257.13
2019-06-01T22:26:00.268Z,246.47
2019-06-01T22:28:31.969Z,324.13
2019-06-01T22:31:03.804Z,319.40
2019-06-01T22:33:35.517Z,259.12
2019-06-01T22:36:07.224Z,154.13
2019-06-01T22:38:38.928Z,99.13
2019-06-01T22:41:10.658Z,94.97
2019-06-01T22:43:46.835Z,65.50
2019-06-01T22:46:16.085Z,53.07
2019-06-01T22:48:47.886Z,53.30
2019-06-01T22:51:20.797Z,42.60
2019-06-01T22:53:52.619Z,46.67
2019-06-01T22:56:25.220Z,38.30
2019-06-01T22:58:56.972Z,36.47
2019-06-01T23:01:28.914Z,33.73
2019-06-01T23:04:00.683Z,35.80
2019-06-01T23:06:32.396Z,29.53
2019-06-01T23:09:06.824Z,32.53
2019-06-01T23:11:38.547Z,27.37
2019-06-01T23:14:10.255Z,26.47
2019-06-01T23:16:41.960Z,24.83
2019-06-01T23:19:13.772Z,30.40
2019-06-01T23:21:45.689Z,24.67
2019-06-01T23:24:17.391Z,34.87
2019-06-01T23:26:49.111Z,32.20
2019-06-01T23:29:22.194Z,29.03
2019-06-01T23:31:54.153Z,30.23
2019-06-01T23:34:26.632Z,26.90
2019-06-01T23:36:59.121Z,21.03
2019-06-01T23:39:30.881Z,18.37
2019-06-01T23:42:02.753Z,22.13
2019-06-01T23:44:35.145Z,25.67
2019-06-01T23:47:07.148Z,26.73
2019-06-01T23:49:38.957Z,24.03
2019-06-01T23:52:10.769Z,24.83
2019-06-01T23:54:42.576Z,26.60
2019-06-01T23:57:14.285Z,25.60
2019-06-01T23:59:45.979Z,22.70
